Caicara, Brazil
Current Conditions -  °F | °C
As of 8:00 AM on Saturday 22 Nov 2014 (Local Time) from SBCH Reporting Station
Drizzle Drizzle  
Wind Chill: 66°   Ceiling: 500
Heat Index: 66°   Visibility: 4mi
Dew Point: 64°   Wind: 9mph
Humidity: 94%   Direction: 340°NNW
Pressure: 29.91"   Gusts: NA
Location:  27.27°S, 53.43°W
Report Text: SBCH 221000Z 34008KT 6000 -DZ FEW003 OVC005 19/18 Q1013
Loading
Personal Weather Stations






























Interactive Weather Map New forecast layout! Learn more

10-Day Weather Forecast

Advertisements
Track Severe Weather on mobile